Latest Coastal Weather Observations for Centre Island

IDD60701

Issued at 11:01 am CST Monday 2 May 2016 (issued every 10 minutes, with the page automatically refreshed every 10 minutes)

About coastal observations | Map of coastal stations | Coastal observations for NT | Marine services | Other Formats
Station Details ID: 014703 Name: CENTRE ISLAND Lat: -15.74 Lon: 136.82 Height: 12.2 m
Data from the previous 72 hours. | See also: Recent months at Centre Island
Date/Time
CST
Temp

°C
Wind Pressure Rain
since 9am
mm
Weather Cloud Vis
km
Sea
Height
m
Swell
Dir
 
Speed
knots
Gust
knots
hPa Trend Height
m
Period
s
Dir
02/11:00am 30.4 SSE 5 6 1012.9 - 0.0 - - - - - - -
02/10:30am 30.1 SSE 5 6 1013.4 - 0.0 - - - - - - -
02/10:00am 29.9 SSE 5 7 1013.6 - 0.0 - - - - - - -
02/09:30am 29.5 SE 7 8 1013.4 - 0.0 - - - - - - -
02/09:00am 29.5 SE 8 9 1013.1 - 0.0 - - - - - - -
02/08:30am 28.8 SSE 9 10 1012.8 - 0.0 - - - - - - -
02/08:00am 28.5 S 8 9 1012.7 - 0.0 - - - - - - -
02/07:30am 28.1 SSE 7 9 1012.4 - 0.0 - - - - - - -
02/07:00am 28.0 SSE 6 8 1012.0 - 0.0 - - - - - - -
02/06:30am 27.7 SSE 5 7 1011.7 - 0.0 - - - - - - -
02/06:00am 27.8 SSE 7 8 1011.4 - 0.0 - - - - - - -
02/05:30am 27.8 ESE 5 5 1011.1 - 0.0 - - - - - - -
02/05:00am 27.7 E 4 5 1010.9 - 0.0 - - - - - - -
02/04:30am 27.8 ENE 4 6 1010.7 - 0.0 - - - - - - -
02/04:00am 27.8 ENE 5 6 1010.4 - 0.0 - - - - - - -
02/03:30am 28.0 ESE 4 5 1010.3 - 0.0 - - - - - - -
02/03:00am 28.0 ESE 5 6 1010.6 - 0.0 - - - - - - -
02/02:30am 28.1 ENE 4 5 1010.6 - 0.0 - - - - - - -
02/02:00am 28.3 NE 5 7 1010.9 - 0.0 - - - - - - -
02/01:30am 28.5 NE 7 9 1011.2 - 0.0 - - - - - - -
02/01:00am 28.5 NE 7 8 1011.4 - 0.0 - - - - - - -
02/12:30am 28.4 ENE 6 7 1012.0 - 0.0 - - - - - - -
02/12:00am 28.6 ENE 7 8 1012.4 - 0.0 - - - - - - -
 
Date/Time
CST
Temp

°C
Wind Pressure Rain
since 9am
mm
Weather Cloud Vis
km
Sea
Height
m
Swell
Dir
 
Speed
knots
Gust
knots
hPa Trend Height
m
Period
s
Dir
01/11:30pm 28.7 ENE 7 8 1012.8 - 0.0 - - - - - - -
01/11:00pm 28.9 ENE 7 8 1012.8 - 0.0 - - - - - - -
01/10:30pm 28.9 E 7 8 1012.8 - 0.0 - - - - - - -
01/10:00pm 29.0 E 7 8 1013.0 - 0.0 - - - - - - -
01/09:30pm 29.2 E 7 9 1013.0 - 0.0 - - - - - - -
01/09:00pm 29.2 E 8 10 1013.0 - 0.0 - - - - - - -
01/08:30pm 29.4 E 8 10 1012.9 - 0.0 - - - - - - -
01/08:00pm 29.6 E 9 11 1012.7 - 0.0 - - - - - - -
01/07:30pm 29.8 E 10 11 1012.2 - 0.0 - - - - - - -
01/07:00pm 29.8 E 10 13 1012.0 - 0.0 - - - - - - -
01/06:30pm 29.9 E 10 13 1011.7 - 0.0 - - - - - - -
01/06:00pm 30.2 E 10 12 1011.4 - 0.0 - - - - - - -
01/05:30pm 30.8 E 11 13 1011.1 - 0.0 - - - - - - -
01/05:00pm 31.2 ENE 11 13 1010.8 - 0.0 - - - - - - -
01/04:30pm 31.5 NE 9 13 1010.6 - 0.0 - - - - - - -
01/04:00pm 31.9 NE 10 13 1010.4 - 0.0 - - - - - - -
01/03:30pm 32.2 NE 11 14 1010.4 - 0.0 - - - - - - -
01/03:00pm 32.7 NE 12 16 1010.5 - 0.0 - - - - - - -
01/02:30pm 33.0 NNE 10 14 1010.8 - 0.0 - - - - - - -
01/02:00pm 33.0 NNE 10 13 1011.2 - 0.0 - - - - - - -
01/01:30pm 33.3 NE 9 14 1011.5 - 0.0 - - - - - - -
01/01:00pm 32.8 NNE 11 14 1011.9 - 0.0 - - - - - - -
01/12:30pm 33.0 NE 11 14 1012.4 - 0.0 - - - - - - -
01/12:00pm 32.2 NNE 11 16 1012.8 - 0.0 - - - - - - -
01/11:30am 31.1 NE 13 16 1013.1 - 0.0 - - - - - - -
01/11:00am 31.1 NE 11 15 1013.5 - 0.0 - - - - - - -
01/10:30am 31.8 NE 11 16 1013.2 - 0.0 - - - - - - -
01/10:00am 29.5 ESE 6 7 1013.4 - 0.0 - - - - - - -
01/09:30am 30.2 ESE 8 10 1013.4 - 0.0 - - - - - - -
01/09:00am 29.1 ESE 8 11 1013.4 - 0.0 - - - - - - -
01/08:30am 28.8 SE 10 11 1013.2 - 0.0 - - - - - - -
01/08:00am 28.5 SE 9 11 1013.1 - 0.0 - - - - - - -
01/07:30am 27.8 SSE 10 12 1012.8 - 0.0 - - - - - - -
01/07:00am 27.2 SSE 9 11 1012.5 - 0.0 - - - - - - -
01/06:30am 27.2 SSE 9 10 1012.3 - 0.0 - - - - - - -
01/06:00am 27.5 SE 8 9 1012.0 - 0.0 - - - - - - -
01/05:30am 27.8 SE 7 9 1011.6 - 0.0 - - - - - - -
01/05:00am 27.7 ESE 6 7 1011.3 - 0.0 - - - - - - -
01/04:30am 27.7 SE 6 8 1011.1 - 0.0 - - - - - - -
01/04:00am 27.8 SE 7 7 1011.0 - 0.0 - - - - - - -
01/03:30am 28.0 SE 6 7 1010.9 - 0.0 - - - - - - -
01/03:00am 28.3 SSE 7 8 1011.0 - 0.0 - - - - - - -
01/02:30am 28.4 SE 7 8 1011.0 - 0.0 - - - - - - -
01/02:00am 28.4 ESE 7 8 1011.0 - 0.0 - - - - - - -
01/01:30am 28.4 E 8 9 1011.2 - 0.0 - - - - - - -
01/01:00am 28.5 E 7 9 1011.5 - 0.0 - - - - - - -
01/12:30am 28.7 E 9 10 1011.9 - 0.0 - - - - - - -
01/12:00am 28.9 E 9 11 1012.3 - 0.0 - - - - - - -
 
Date/Time
CST
Temp

°C
Wind Pressure Rain
since 9am
mm
Weather Cloud Vis
km
Sea
Height
m
Swell
Dir
 
Speed
knots
Gust
knots
hPa Trend Height
m
Period
s
Dir
30/11:30pm 29.0 ESE 9 11 1012.5 - 0.0 - - - - - - -
30/11:00pm 29.1 ESE 10 11 1012.4 - 0.0 - - - - - - -
30/10:30pm 29.1 ESE 9 11 1012.4 - 0.0 - - - - - - -
30/10:00pm 29.1 ESE 8 9 1012.6 - 0.0 - - - - - - -
30/09:30pm 29.2 ESE 9 10 1012.6 - 0.0 - - - - - - -
30/09:00pm 29.3 ESE 8 9 1012.5 - 0.0 - - - - - - -
30/08:30pm 29.3 E 8 9 1012.4 - 0.0 - - - - - - -
30/08:00pm 29.4 E 9 11 1012.3 - 0.0 - - - - - - -
30/07:30pm 29.6 E 10 12 1012.0 - 0.0 - - - - - - -
30/07:00pm 29.7 ENE 10 12 1011.8 - 0.0 - - - - - - -
30/06:30pm 29.9 ENE 10 12 1011.5 - 0.0 - - - - - - -
30/06:00pm 30.1 E 12 14 1011.1 - 0.0 - - - - - - -
30/05:30pm 30.9 ENE 11 14 1010.8 - 0.0 - - - - - - -
30/05:00pm 31.2 E 12 14 1010.4 - 0.0 - - - - - - -
30/04:30pm 31.7 E 12 15 1010.1 - 0.0 - - - - - - -
30/04:00pm 32.9 E 11 13 1009.9 - 0.0 - - - - - - -
30/03:30pm 32.7 NE 8 12 1010.1 - 0.0 - - - - - - -
30/03:00pm 33.3 NE 9 12 1010.4 - 0.0 - - - - - - -
30/02:30pm 33.2 NE 9 11 1010.5 - 0.0 - - - - - - -
30/02:00pm 33.2 NE 10 13 1010.6 - 0.0 - - - - - - -
30/01:30pm 33.0 NNE 10 13 1010.8 - 0.0 - - - - - - -
30/01:00pm 33.5 NNE 11 15 1011.3 - 0.0 - - - - - - -
30/12:30pm 33.8 NE 10 14 1011.7 - 0.0 - - - - - - -
30/12:00pm 32.6 ESE 5 6 1012.2 - 0.0 - - - - - - -
30/11:30am 30.9 SSE 5 6 1012.7 - 0.0 - - - - - - -
30/11:00am 30.2 SE 5 6 1013.2 - 0.0 - - - - - - -
30/10:30am 30.2 SE 4 6 1013.2 - 0.0 - - - - - - -
30/10:00am 29.9 SE 4 6 1013.5 - 0.0 - - - - - - -
30/09:30am 29.8 SE 5 7 1013.5 - 0.0 - - - - - - -
30/09:00am 30.1 SE 7 9 1013.2 - 0.0 - - - - - - -
30/08:30am 29.0 SE 6 7 1013.0 - 0.0 - - - - - - -
30/08:00am 28.5 SE 6 7 1012.8 - 0.0 - - - - - - -
30/07:30am 28.1 ESE 6 7 1012.6 - 0.0 - - - - - - -
30/07:00am 27.6 SE 7 7 1012.2 - 0.0 - - - - - - -
30/06:30am 27.5 SSE 7 9 1012.2 - 0.0 - - - - - - -
30/06:00am 27.6 SSE 8 9 1012.1 - 0.0 - - - - - - -
30/05:30am 27.6 SSE 10 11 1011.6 - 0.0 - - - - - - -
30/05:00am 27.6 SSE 9 10 1011.2 - 0.0 - - - - - - -
30/04:30am 27.6 SSE 9 11 1011.0 - 0.0 - - - - - - -
30/04:00am 27.9 S 9 11 1010.9 - 0.0 - - - - - - -
30/03:30am 28.0 SSE 7 8 1010.7 - 0.0 - - - - - - -
30/03:00am 28.4 SE 6 9 1010.9 - 0.0 - - - - - - -
30/02:30am 28.0 SSE 5 6 1010.9 - 0.0 - - - - - - -
30/02:00am 28.1 SE 5 6 1010.9 - 0.0 - - - - - - -
30/01:30am 27.8 E 4 6 1011.2 - 0.0 - - - - - - -
30/01:00am 28.2 ENE 5 6 1011.6 - 0.0 - - - - - - -
30/12:30am 28.5 NE 5 7 1011.9 - 0.0 - - - - - - -
30/12:00am 28.6 NE 7 8 1012.4 - 0.0 - - - - - - -
 
Date/Time
CST
Temp

°C
Wind Pressure Rain
since 9am
mm
Weather Cloud Vis
km
Sea
Height
m
Swell
Dir
 
Speed
knots
Gust
knots
hPa Trend Height
m
Period
s
Dir
29/11:30pm 28.7 ENE 6 7 1012.9 - 0.0 - - - - - - -
29/11:00pm 29.0 ESE 5 6 1013.5 - 0.0 - - - - - - -
29/10:30pm 28.9 SE 5 6 1013.6 - 0.0 - - - - - - -
29/10:00pm 29.0 ESE 4 4 1013.5 - 0.0 - - - - - - -
29/09:30pm 29.1 ESE 5 6 1013.5 - 0.0 - - - - - - -
29/09:00pm 29.3 E 5 6 1013.3 - 0.0 - - - - - - -
29/08:30pm 29.5 E 6 7 1013.0 - 0.0 - - - - - - -
29/08:00pm 29.2 ENE 5 6 1012.6 - 0.0 - - - - - - -
29/07:30pm 29.3 ENE 7 8 1012.2 - 0.0 - - - - - - -
29/07:00pm 29.5 E 9 11 1011.8 - 0.0 - - - - - - -
29/06:30pm 29.8 ENE 9 12 1011.5 - 0.0 - - - - - - -
29/06:00pm 30.1 NE 11 14 1011.3 - 0.0 - - - - - - -
29/05:30pm 30.7 NE 11 13 1010.9 - 0.0 - - - - - - -
29/05:00pm 31.3 ENE 11 14 1010.6 - 0.0 - - - - - - -
29/04:30pm 31.4 NE 12 15 1010.5 - 0.0 - - - - - - -
29/04:00pm 32.3 NNE 11 15 1010.5 - 0.0 - - - - - - -
29/03:30pm 32.6 NNE 11 14 1010.5 - 0.0 - - - - - - -
29/03:00pm 33.2 NE 9 13 1010.4 - 0.0 - - - - - - -
29/02:30pm 32.4 ENE 6 8 1010.5 - 0.0 - - - - - - -
29/02:00pm 32.4 E 5 7 1010.8 - 0.0 - - - - - - -
29/01:30pm 32.4 NE 6 8 1011.1 - 0.0 - - - - - - -
29/01:00pm 31.7 NE 6 8 1011.6 - 0.0 - - - - - - -
29/12:30pm 31.9 ENE 5 7 1012.1 - 0.0 - - - - - - -
29/12:00pm 31.4 SE 5 6 1012.6 - 0.0 - - - - - - -
29/11:30am 30.8 SSW 5 7 1013.0 - 0.0 - - - - - - -

Other Formats:

Comma delimited format used in spreadsheet applications
http://www.bom.gov.au/fwo/IDD60701/IDD60701.94248.axf

JavaScript Object Notation format (JSON) in row-major order
http://www.bom.gov.au/fwo/IDD60701/IDD60701.94248.json